sensor_id;sensor_type;location;lat;lon;timestamp;temperature;humidity
72883;DHT22;61017;37.812;-122.286;2023-07-31T00:00:20;18.90;93.80
72883;DHT22;61017;37.812;-122.286;2023-07-31T00:01:51;19.00;93.80
72883;DHT22;61017;37.812;-122.286;2023-07-31T00:03:23;19.00;93.80
72883;DHT22;61017;37.812;-122.286;2023-07-31T00:04:54;19.00;93.90
72883;DHT22;61017;37.812;-122.286;2023-07-31T00:06:29;19.00;93.90
72883;DHT22;61017;37.812;-122.286;2023-07-31T00:08:03;19.00;93.80
72883;DHT22;61017;37.812;-122.286;2023-07-31T00:09:34;19.00;93.80
72883;DHT22;61017;37.812;-122.286;2023-07-31T00:11:06;19.00;93.90
72883;DHT22;61017;37.812;-122.286;2023-07-31T00:12:43;19.00;93.90
72883;DHT22;61017;37.812;-122.286;2023-07-31T00:14:15;19.00;93.90
72883;DHT22;61017;37.812;-122.286;2023-07-31T00:15:46;18.90;93.90
72883;DHT22;61017;37.812;-122.286;2023-07-31T00:17:18;19.00;93.90
72883;DHT22;61017;37.812;-122.286;2023-07-31T00:18:50;19.00;93.90
72883;DHT22;61017;37.812;-122.286;2023-07-31T00:20:21;18.90;93.80
72883;DHT22;61017;37.812;-122.286;2023-07-31T00:21:53;19.00;93.90
72883;DHT22;61017;37.812;-122.286;2023-07-31T00:23:24;19.00;93.80
72883;DHT22;61017;37.812;-122.286;2023-07-31T00:24:56;19.00;93.90
72883;DHT22;61017;37.812;-122.286;2023-07-31T00:26:28;19.00;93.90
72883;DHT22;61017;37.812;-122.286;2023-07-31T00:27:59;19.00;93.90
72883;DHT22;61017;37.812;-122.286;2023-07-31T00:29:31;19.00;93.90
72883;DHT22;61017;37.812;-122.286;2023-07-31T00:31:03;19.00;93.80
72883;DHT22;61017;37.812;-122.286;2023-07-31T00:32:34;19.00;94.00
72883;DHT22;61017;37.812;-122.286;2023-07-31T00:34:06;19.00;94.00
72883;DHT22;61017;37.812;-122.286;2023-07-31T00:35:37;19.00;94.00
72883;DHT22;61017;37.812;-122.286;2023-07-31T00:37:09;19.00;94.00
72883;DHT22;61017;37.812;-122.286;2023-07-31T00:38:41;19.00;93.90
72883;DHT22;61017;37.812;-122.286;2023-07-31T00:40:12;19.00;93.90
72883;DHT22;61017;37.812;-122.286;2023-07-31T00:41:44;19.00;94.00
72883;DHT22;61017;37.812;-122.286;2023-07-31T00:43:15;19.00;93.80
72883;DHT22;61017;37.812;-122.286;2023-07-31T00:44:47;19.00;93.90
72883;DHT22;61017;37.812;-122.286;2023-07-31T00:46:19;19.00;93.90
72883;DHT22;61017;37.812;-122.286;2023-07-31T00:47:51;19.00;94.00
72883;DHT22;61017;37.812;-122.286;2023-07-31T00:49:23;19.00;94.00
72883;DHT22;61017;37.812;-122.286;2023-07-31T00:50:54;19.00;94.00
72883;DHT22;61017;37.812;-122.286;2023-07-31T00:52:26;19.00;94.00
72883;DHT22;61017;37.812;-122.286;2023-07-31T00:53:58;19.00;94.10
72883;DHT22;61017;37.812;-122.286;2023-07-31T00:55:30;19.00;94.10
72883;DHT22;61017;37.812;-122.286;2023-07-31T00:57:02;19.00;94.00
72883;DHT22;61017;37.812;-122.286;2023-07-31T00:58:34;19.00;94.10
72883;DHT22;61017;37.812;-122.286;2023-07-31T01:00:06;19.00;94.10
72883;DHT22;61017;37.812;-122.286;2023-07-31T01:01:38;19.00;94.10
72883;DHT22;61017;37.812;-122.286;2023-07-31T01:03:10;19.00;94.10
72883;DHT22;61017;37.812;-122.286;2023-07-31T01:04:43;19.00;94.20
72883;DHT22;61017;37.812;-122.286;2023-07-31T01:08:26;19.00;94.30
72883;DHT22;61017;37.812;-122.286;2023-07-31T01:10:20;19.00;94.30
72883;DHT22;61017;37.812;-122.286;2023-07-31T01:11:57;19.00;94.40
72883;DHT22;61017;37.812;-122.286;2023-07-31T01:13:29;19.00;94.40
72883;DHT22;61017;37.812;-122.286;2023-07-31T01:15:05;19.00;94.40
72883;DHT22;61017;37.812;-122.286;2023-07-31T01:16:39;19.00;94.40
72883;DHT22;61017;37.812;-122.286;2023-07-31T01:18:11;19.00;94.40
72883;DHT22;61017;37.812;-122.286;2023-07-31T01:19:42;19.00;94.40
72883;DHT22;61017;37.812;-122.286;2023-07-31T01:21:34;19.00;94.40
72883;DHT22;61017;37.812;-122.286;2023-07-31T01:27:12;19.00;94.30
72883;DHT22;61017;37.812;-122.286;2023-07-31T01:28:50;19.00;94.40
72883;DHT22;61017;37.812;-122.286;2023-07-31T01:30:32;19.00;94.40
72883;DHT22;61017;37.812;-122.286;2023-07-31T01:32:08;19.00;94.40
72883;DHT22;61017;37.812;-122.286;2023-07-31T01:33:43;19.00;94.40
72883;DHT22;61017;37.812;-122.286;2023-07-31T01:35:15;19.00;94.40
72883;DHT22;61017;37.812;-122.286;2023-07-31T01:36:47;19.00;94.40
72883;DHT22;61017;37.812;-122.286;2023-07-31T01:38:22;19.00;94.40
72883;DHT22;61017;37.812;-122.286;2023-07-31T01:39:56;19.00;94.40
72883;DHT22;61017;37.812;-122.286;2023-07-31T01:41:36;19.00;94.40
72883;DHT22;61017;37.812;-122.286;2023-07-31T01:44:58;19.00;94.40
72883;DHT22;61017;37.812;-122.286;2023-07-31T01:46:30;19.00;94.40
72883;DHT22;61017;37.812;-122.286;2023-07-31T01:48:01;19.00;94.50
72883;DHT22;61017;37.812;-122.286;2023-07-31T01:49:33;19.00;94.40
72883;DHT22;61017;37.812;-122.286;2023-07-31T01:51:05;19.00;94.40
72883;DHT22;61017;37.812;-122.286;2023-07-31T01:52:36;19.00;94.40
72883;DHT22;61017;37.812;-122.286;2023-07-31T01:54:08;19.00;94.40
72883;DHT22;61017;37.812;-122.286;2023-07-31T01:55:39;19.00;94.50
72883;DHT22;61017;37.812;-122.286;2023-07-31T01:57:12;19.00;94.40
72883;DHT22;61017;37.812;-122.286;2023-07-31T01:58:44;19.00;94.40
72883;DHT22;61017;37.812;-122.286;2023-07-31T02:00:18;19.00;94.40
72883;DHT22;61017;37.812;-122.286;2023-07-31T02:01:50;19.00;94.40
72883;DHT22;61017;37.812;-122.286;2023-07-31T02:03:22;19.00;94.40
72883;DHT22;61017;37.812;-122.286;2023-07-31T02:04:54;19.00;94.40
72883;DHT22;61017;37.812;-122.286;2023-07-31T02:06:25;19.00;94.40
72883;DHT22;61017;37.812;-122.286;2023-07-31T02:07:57;19.00;94.40
72883;DHT22;61017;37.812;-122.286;2023-07-31T02:09:28;19.00;94.40
72883;DHT22;61017;37.812;-122.286;2023-07-31T02:11:00;19.00;94.40
72883;DHT22;61017;37.812;-122.286;2023-07-31T02:12:32;19.00;94.40
72883;DHT22;61017;37.812;-122.286;2023-07-31T02:14:03;19.00;94.40
72883;DHT22;61017;37.812;-122.286;2023-07-31T02:15:35;19.00;94.30
72883;DHT22;61017;37.812;-122.286;2023-07-31T02:17:07;19.00;94.20
72883;DHT22;61017;37.812;-122.286;2023-07-31T02:18:38;19.00;94.30
72883;DHT22;61017;37.812;-122.286;2023-07-31T02:20:13;19.00;94.30
72883;DHT22;61017;37.812;-122.286;2023-07-31T02:21:45;19.00;94.30
72883;DHT22;61017;37.812;-122.286;2023-07-31T02:23:20;19.00;94.20
72883;DHT22;61017;37.812;-122.286;2023-07-31T02:24:52;19.00;94.30
72883;DHT22;61017;37.812;-122.286;2023-07-31T02:26:23;19.00;94.30
72883;DHT22;61017;37.812;-122.286;2023-07-31T02:27:55;19.00;94.30
72883;DHT22;61017;37.812;-122.286;2023-07-31T02:29:27;19.00;94.30
72883;DHT22;61017;37.812;-122.286;2023-07-31T02:30:59;19.00;94.30
72883;DHT22;61017;37.812;-122.286;2023-07-31T02:32:33;19.00;94.40
72883;DHT22;61017;37.812;-122.286;2023-07-31T02:34:04;19.00;94.20
72883;DHT22;61017;37.812;-122.286;2023-07-31T02:38:58;19.00;94.30
72883;DHT22;61017;37.812;-122.286;2023-07-31T02:40:32;19.00;94.30
72883;DHT22;61017;37.812;-122.286;2023-07-31T02:42:04;19.00;94.30
72883;DHT22;61017;37.812;-122.286;2023-07-31T02:43:35;19.00;94.30
72883;DHT22;61017;37.812;-122.286;2023-07-31T02:45:07;19.00;94.30
72883;DHT22;61017;37.812;-122.286;2023-07-31T02:46:39;19.00;94.30
72883;DHT22;61017;37.812;-122.286;2023-07-31T02:48:11;19.00;94.30
72883;DHT22;61017;37.812;-122.286;2023-07-31T02:49:43;19.00;94.30
72883;DHT22;61017;37.812;-122.286;2023-07-31T02:51:15;19.00;94.20
72883;DHT22;61017;37.812;-122.286;2023-07-31T02:52:46;19.00;94.30
72883;DHT22;61017;37.812;-122.286;2023-07-31T02:54:18;19.00;94.30
72883;DHT22;61017;37.812;-122.286;2023-07-31T02:55:52;19.00;94.30
72883;DHT22;61017;37.812;-122.286;2023-07-31T02:57:24;19.00;94.30
72883;DHT22;61017;37.812;-122.286;2023-07-31T02:58:56;19.00;94.30
72883;DHT22;61017;37.812;-122.286;2023-07-31T03:00:28;19.00;94.30
72883;DHT22;61017;37.812;-122.286;2023-07-31T03:02:00;19.00;94.30
72883;DHT22;61017;37.812;-122.286;2023-07-31T03:03:32;19.00;94.30
72883;DHT22;61017;37.812;-122.286;2023-07-31T03:05:03;19.10;94.40
72883;DHT22;61017;37.812;-122.286;2023-07-31T03:06:35;19.00;94.30
72883;DHT22;61017;37.812;-122.286;2023-07-31T03:08:10;19.10;94.40
72883;DHT22;61017;37.812;-122.286;2023-07-31T03:09:41;19.10;94.40
72883;DHT22;61017;37.812;-122.286;2023-07-31T03:11:13;19.00;94.30
72883;DHT22;61017;37.812;-122.286;2023-07-31T03:12:47;19.00;94.30
72883;DHT22;61017;37.812;-122.286;2023-07-31T03:14:18;19.00;94.40
72883;DHT22;61017;37.812;-122.286;2023-07-31T03:15:50;19.00;94.30
72883;DHT22;61017;37.812;-122.286;2023-07-31T03:17:22;19.00;94.30
72883;DHT22;61017;37.812;-122.286;2023-07-31T03:18:54;19.00;94.30
72883;DHT22;61017;37.812;-122.286;2023-07-31T03:20:26;19.00;94.30
72883;DHT22;61017;37.812;-122.286;2023-07-31T03:21:58;19.00;94.30
72883;DHT22;61017;37.812;-122.286;2023-07-31T03:23:29;19.00;94.30
72883;DHT22;61017;37.812;-122.286;2023-07-31T03:25:02;19.00;94.30
72883;DHT22;61017;37.812;-122.286;2023-07-31T03:26:34;19.10;94.40
72883;DHT22;61017;37.812;-122.286;2023-07-31T03:28:05;19.00;94.30
72883;DHT22;61017;37.812;-122.286;2023-07-31T03:29:37;19.00;94.60
72883;DHT22;61017;37.812;-122.286;2023-07-31T03:31:08;19.10;94.40
72883;DHT22;61017;37.812;-122.286;2023-07-31T03:32:40;19.10;94.40
72883;DHT22;61017;37.812;-122.286;2023-07-31T03:34:11;19.10;94.40
72883;DHT22;61017;37.812;-122.286;2023-07-31T03:35:43;19.00;94.30
72883;DHT22;61017;37.812;-122.286;2023-07-31T03:37:15;19.00;94.30
72883;DHT22;61017;37.812;-122.286;2023-07-31T03:38:46;19.10;94.40
72883;DHT22;61017;37.812;-122.286;2023-07-31T03:40:18;19.10;94.40
72883;DHT22;61017;37.812;-122.286;2023-07-31T03:41:50;19.10;94.40
72883;DHT22;61017;37.812;-122.286;2023-07-31T03:43:21;19.10;94.40
72883;DHT22;61017;37.812;-122.286;2023-07-31T03:44:56;19.00;94.40
72883;DHT22;61017;37.812;-122.286;2023-07-31T03:46:27;19.10;94.40
72883;DHT22;61017;37.812;-122.286;2023-07-31T03:47:59;19.00;94.30
72883;DHT22;61017;37.812;-122.286;2023-07-31T03:49:31;19.10;94.40
72883;DHT22;61017;37.812;-122.286;2023-07-31T03:51:05;19.00;94.30
72883;DHT22;61017;37.812;-122.286;2023-07-31T03:52:37;19.10;94.40
72883;DHT22;61017;37.812;-122.286;2023-07-31T03:54:09;19.00;94.70
72883;DHT22;61017;37.812;-122.286;2023-07-31T03:55:40;19.10;94.30
72883;DHT22;61017;37.812;-122.286;2023-07-31T03:57:15;19.00;94.30
72883;DHT22;61017;37.812;-122.286;2023-07-31T03:58:46;19.00;94.30
72883;DHT22;61017;37.812;-122.286;2023-07-31T04:00:18;19.10;94.30
72883;DHT22;61017;37.812;-122.286;2023-07-31T04:01:50;19.00;94.30
72883;DHT22;61017;37.812;-122.286;2023-07-31T04:03:21;19.00;94.30
72883;DHT22;61017;37.812;-122.286;2023-07-31T04:04:55;19.00;94.30
72883;DHT22;61017;37.812;-122.286;2023-07-31T04:06:27;19.00;94.30
72883;DHT22;61017;37.812;-122.286;2023-07-31T04:08:01;19.00;94.20
72883;DHT22;61017;37.812;-122.286;2023-07-31T04:09:36;19.00;94.30
72883;DHT22;61017;37.812;-122.286;2023-07-31T04:11:10;19.00;94.30
72883;DHT22;61017;37.812;-122.286;2023-07-31T04:12:41;19.00;94.30
72883;DHT22;61017;37.812;-122.286;2023-07-31T04:14:13;19.10;94.30
72883;DHT22;61017;37.812;-122.286;2023-07-31T04:15:51;19.00;94.30
72883;DHT22;61017;37.812;-122.286;2023-07-31T04:17:25;19.00;94.30
72883;DHT22;61017;37.812;-122.286;2023-07-31T04:18:57;19.10;94.20
72883;DHT22;61017;37.812;-122.286;2023-07-31T04:20:29;19.10;94.30
72883;DHT22;61017;37.812;-122.286;2023-07-31T04:22:00;19.00;94.30
72883;DHT22;61017;37.812;-122.286;2023-07-31T04:23:32;19.10;94.30
72883;DHT22;61017;37.812;-122.286;2023-07-31T04:25:04;19.10;94.30
72883;DHT22;61017;37.812;-122.286;2023-07-31T04:26:35;19.10;94.40
72883;DHT22;61017;37.812;-122.286;2023-07-31T04:28:10;19.10;94.40
72883;DHT22;61017;37.812;-122.286;2023-07-31T04:29:42;19.10;94.40
72883;DHT22;61017;37.812;-122.286;2023-07-31T04:31:13;19.10;94.30
72883;DHT22;61017;37.812;-122.286;2023-07-31T04:32:45;19.00;94.20
72883;DHT22;61017;37.812;-122.286;2023-07-31T04:34:20;19.10;94.60
72883;DHT22;61017;37.812;-122.286;2023-07-31T04:35:54;19.00;94.30
72883;DHT22;61017;37.812;-122.286;2023-07-31T04:37:26;19.10;94.40
72883;DHT22;61017;37.812;-122.286;2023-07-31T04:38:58;19.00;94.30
72883;DHT22;61017;37.812;-122.286;2023-07-31T04:40:29;19.10;94.30
72883;DHT22;61017;37.812;-122.286;2023-07-31T04:42:03;19.00;94.20
72883;DHT22;61017;37.812;-122.286;2023-07-31T04:43:35;19.10;94.30
72883;DHT22;61017;37.812;-122.286;2023-07-31T04:45:08;19.00;94.20
72883;DHT22;61017;37.812;-122.286;2023-07-31T04:46:40;19.00;94.30
72883;DHT22;61017;37.812;-122.286;2023-07-31T04:48:12;19.00;94.20
72883;DHT22;61017;37.812;-122.286;2023-07-31T04:49:43;19.00;94.20
72883;DHT22;61017;37.812;-122.286;2023-07-31T04:51:15;19.00;94.20
72883;DHT22;61017;37.812;-122.286;2023-07-31T04:52:49;19.10;94.20
72883;DHT22;61017;37.812;-122.286;2023-07-31T04:54:21;19.00;94.20
72883;DHT22;61017;37.812;-122.286;2023-07-31T04:55:52;19.00;94.20
72883;DHT22;61017;37.812;-122.286;2023-07-31T04:57:24;19.00;94.20
72883;DHT22;61017;37.812;-122.286;2023-07-31T04:58:56;19.00;94.20
72883;DHT22;61017;37.812;-122.286;2023-07-31T05:00:27;19.00;94.20
72883;DHT22;61017;37.812;-122.286;2023-07-31T05:01:59;19.00;94.20
72883;DHT22;61017;37.812;-122.286;2023-07-31T05:03:30;19.00;94.30
72883;DHT22;61017;37.812;-122.286;2023-07-31T05:05:02;19.00;94.20
72883;DHT22;61017;37.812;-122.286;2023-07-31T05:06:34;19.00;94.20
72883;DHT22;61017;37.812;-122.286;2023-07-31T05:08:09;19.00;94.20
72883;DHT22;61017;37.812;-122.286;2023-07-31T05:10:00;19.00;94.20
72883;DHT22;61017;37.812;-122.286;2023-07-31T05:11:44;19.00;94.20
72883;DHT22;61017;37.812;-122.286;2023-07-31T05:13:19;19.00;94.20
72883;DHT22;61017;37.812;-122.286;2023-07-31T05:14:56;19.00;94.10
72883;DHT22;61017;37.812;-122.286;2023-07-31T05:16:31;19.00;94.20
72883;DHT22;61017;37.812;-122.286;2023-07-31T05:18:12;19.00;94.20
72883;DHT22;61017;37.812;-122.286;2023-07-31T05:19:44;19.00;94.20
72883;DHT22;61017;37.812;-122.286;2023-07-31T05:21:16;19.00;94.20
72883;DHT22;61017;37.812;-122.286;2023-07-31T05:22:50;19.00;94.10
72883;DHT22;61017;37.812;-122.286;2023-07-31T05:24:29;19.00;94.10
72883;DHT22;61017;37.812;-122.286;2023-07-31T05:26:05;19.00;94.20
72883;DHT22;61017;37.812;-122.286;2023-07-31T05:27:37;19.00;94.10
72883;DHT22;61017;37.812;-122.286;2023-07-31T05:29:11;19.00;94.20
72883;DHT22;61017;37.812;-122.286;2023-07-31T05:30:43;19.00;94.10
72883;DHT22;61017;37.812;-122.286;2023-07-31T05:32:14;19.00;94.10
72883;DHT22;61017;37.812;-122.286;2023-07-31T05:33:49;19.00;94.20
72883;DHT22;61017;37.812;-122.286;2023-07-31T05:35:20;19.00;94.20
72883;DHT22;61017;37.812;-122.286;2023-07-31T05:36:52;19.00;94.10
72883;DHT22;61017;37.812;-122.286;2023-07-31T05:38:24;19.00;94.10
72883;DHT22;61017;37.812;-122.286;2023-07-31T05:40:01;19.00;94.20
72883;DHT22;61017;37.812;-122.286;2023-07-31T05:41:35;19.00;94.20
72883;DHT22;61017;37.812;-122.286;2023-07-31T05:43:07;19.00;94.20
72883;DHT22;61017;37.812;-122.286;2023-07-31T05:44:38;19.00;94.10
72883;DHT22;61017;37.812;-122.286;2023-07-31T05:46:10;19.00;94.10
72883;DHT22;61017;37.812;-122.286;2023-07-31T05:48:02;19.00;94.10
72883;DHT22;61017;37.812;-122.286;2023-07-31T05:49:34;19.00;94.20
72883;DHT22;61017;37.812;-122.286;2023-07-31T05:51:11;19.00;94.10
72883;DHT22;61017;37.812;-122.286;2023-07-31T05:52:49;19.00;94.10
72883;DHT22;61017;37.812;-122.286;2023-07-31T05:54:20;19.00;94.10
72883;DHT22;61017;37.812;-122.286;2023-07-31T05:56:00;19.00;94.10
72883;DHT22;61017;37.812;-122.286;2023-07-31T05:57:32;19.00;94.10
72883;DHT22;61017;37.812;-122.286;2023-07-31T05:59:13;19.00;94.10
72883;DHT22;61017;37.812;-122.286;2023-07-31T06:00:58;19.00;94.10
72883;DHT22;61017;37.812;-122.286;2023-07-31T06:02:32;19.00;94.10
72883;DHT22;61017;37.812;-122.286;2023-07-31T06:04:07;19.00;94.10
72883;DHT22;61017;37.812;-122.286;2023-07-31T06:05:50;19.00;94.10
72883;DHT22;61017;37.812;-122.286;2023-07-31T06:07:27;19.00;94.10
72883;DHT22;61017;37.812;-122.286;2023-07-31T06:09:10;19.00;94.10
72883;DHT22;61017;37.812;-122.286;2023-07-31T06:10:41;19.00;94.10
72883;DHT22;61017;37.812;-122.286;2023-07-31T06:12:22;19.00;94.10
72883;DHT22;61017;37.812;-122.286;2023-07-31T06:13:56;19.00;94.10
72883;DHT22;61017;37.812;-122.286;2023-07-31T06:15:28;19.00;94.10
72883;DHT22;61017;37.812;-122.286;2023-07-31T06:17:02;19.00;94.00
72883;DHT22;61017;37.812;-122.286;2023-07-31T06:20:26;19.00;94.10
72883;DHT22;61017;37.812;-122.286;2023-07-31T06:22:00;19.00;94.10
72883;DHT22;61017;37.812;-122.286;2023-07-31T06:23:37;19.00;94.10
72883;DHT22;61017;37.812;-122.286;2023-07-31T06:25:09;19.00;94.10
72883;DHT22;61017;37.812;-122.286;2023-07-31T06:26:45;19.00;94.00
72883;DHT22;61017;37.812;-122.286;2023-07-31T06:28:17;19.00;94.40
72883;DHT22;61017;37.812;-122.286;2023-07-31T06:29:52;19.00;94.10
72883;DHT22;61017;37.812;-122.286;2023-07-31T06:31:29;19.00;94.10
72883;DHT22;61017;37.812;-122.286;2023-07-31T06:33:00;19.00;94.10
72883;DHT22;61017;37.812;-122.286;2023-07-31T06:34:32;19.00;94.10
72883;DHT22;61017;37.812;-122.286;2023-07-31T06:36:09;19.00;94.10
72883;DHT22;61017;37.812;-122.286;2023-07-31T06:37:41;19.00;94.10
72883;DHT22;61017;37.812;-122.286;2023-07-31T06:39:15;19.00;94.10
72883;DHT22;61017;37.812;-122.286;2023-07-31T06:40:53;19.00;94.10
72883;DHT22;61017;37.812;-122.286;2023-07-31T06:42:24;19.00;94.00
72883;DHT22;61017;37.812;-122.286;2023-07-31T06:43:56;19.00;94.00
72883;DHT22;61017;37.812;-122.286;2023-07-31T06:45:28;19.00;94.00
72883;DHT22;61017;37.812;-122.286;2023-07-31T06:46:59;19.00;94.00
72883;DHT22;61017;37.812;-122.286;2023-07-31T06:48:34;19.00;94.00
72883;DHT22;61017;37.812;-122.286;2023-07-31T06:50:18;19.00;94.00
72883;DHT22;61017;37.812;-122.286;2023-07-31T06:51:59;19.00;94.00
72883;DHT22;61017;37.812;-122.286;2023-07-31T06:55:20;19.00;93.90
72883;DHT22;61017;37.812;-122.286;2023-07-31T06:56:58;19.00;93.90
72883;DHT22;61017;37.812;-122.286;2023-07-31T06:58:29;19.00;93.80
72883;DHT22;61017;37.812;-122.286;2023-07-31T07:00:04;19.00;93.80
72883;DHT22;61017;37.812;-122.286;2023-07-31T07:01:57;19.00;93.80
72883;DHT22;61017;37.812;-122.286;2023-07-31T07:03:33;19.00;93.80
72883;DHT22;61017;37.812;-122.286;2023-07-31T07:05:06;19.00;93.80
72883;DHT22;61017;37.812;-122.286;2023-07-31T07:06:43;19.00;93.90
72883;DHT22;61017;37.812;-122.286;2023-07-31T07:08:17;19.00;93.90
72883;DHT22;61017;37.812;-122.286;2023-07-31T07:09:49;19.00;93.90
72883;DHT22;61017;37.812;-122.286;2023-07-31T07:11:29;19.00;93.90
72883;DHT22;61017;37.812;-122.286;2023-07-31T07:13:01;19.00;93.90
72883;DHT22;61017;37.812;-122.286;2023-07-31T07:14:32;19.00;94.00
72883;DHT22;61017;37.812;-122.286;2023-07-31T07:16:10;19.00;93.90
72883;DHT22;61017;37.812;-122.286;2023-07-31T07:17:42;19.00;93.90
72883;DHT22;61017;37.812;-122.286;2023-07-31T07:19:13;19.00;94.00
72883;DHT22;61017;37.812;-122.286;2023-07-31T07:20:50;19.00;94.00
72883;DHT22;61017;37.812;-122.286;2023-07-31T07:22:28;19.00;94.00
72883;DHT22;61017;37.812;-122.286;2023-07-31T07:24:03;19.00;94.00
72883;DHT22;61017;37.812;-122.286;2023-07-31T07:25:37;19.00;94.00
72883;DHT22;61017;37.812;-122.286;2023-07-31T07:27:09;19.00;94.00
72883;DHT22;61017;37.812;-122.286;2023-07-31T07:28:50;19.00;93.90
72883;DHT22;61017;37.812;-122.286;2023-07-31T07:30:22;19.00;93.90
72883;DHT22;61017;37.812;-122.286;2023-07-31T07:31:53;19.00;94.00
72883;DHT22;61017;37.812;-122.286;2023-07-31T07:33:25;19.00;93.90
72883;DHT22;61017;37.812;-122.286;2023-07-31T07:34:56;19.00;94.00
72883;DHT22;61017;37.812;-122.286;2023-07-31T07:36:28;19.00;93.70
72883;DHT22;61017;37.812;-122.286;2023-07-31T07:38:03;19.00;93.80
72883;DHT22;61017;37.812;-122.286;2023-07-31T07:39:37;19.00;93.70
72883;DHT22;61017;37.812;-122.286;2023-07-31T07:41:11;19.00;93.80
72883;DHT22;61017;37.812;-122.286;2023-07-31T07:42:43;19.00;93.80
72883;DHT22;61017;37.812;-122.286;2023-07-31T07:44:15;19.00;93.70
72883;DHT22;61017;37.812;-122.286;2023-07-31T07:45:46;19.00;93.70
72883;DHT22;61017;37.812;-122.286;2023-07-31T07:47:18;19.00;93.70
72883;DHT22;61017;37.812;-122.286;2023-07-31T07:48:54;19.00;93.70
72883;DHT22;61017;37.812;-122.286;2023-07-31T07:50:26;19.00;93.80
72883;DHT22;61017;37.812;-122.286;2023-07-31T07:52:04;19.00;93.80
72883;DHT22;61017;37.812;-122.286;2023-07-31T07:53:38;19.00;93.90
72883;DHT22;61017;37.812;-122.286;2023-07-31T07:55:10;19.00;93.80
72883;DHT22;61017;37.812;-122.286;2023-07-31T07:56:42;19.00;93.90
72883;DHT22;61017;37.812;-122.286;2023-07-31T07:58:17;19.00;93.70
72883;DHT22;61017;37.812;-122.286;2023-07-31T07:59:48;19.00;93.80
72883;DHT22;61017;37.812;-122.286;2023-07-31T08:01:20;19.00;93.70
72883;DHT22;61017;37.812;-122.286;2023-07-31T08:02:52;19.00;93.70
72883;DHT22;61017;37.812;-122.286;2023-07-31T08:04:23;19.00;93.60
72883;DHT22;61017;37.812;-122.286;2023-07-31T08:06:06;19.00;93.60
72883;DHT22;61017;37.812;-122.286;2023-07-31T08:07:38;19.00;93.60
72883;DHT22;61017;37.812;-122.286;2023-07-31T08:09:10;19.00;93.70
72883;DHT22;61017;37.812;-122.286;2023-07-31T08:10:44;19.00;93.70
72883;DHT22;61017;37.812;-122.286;2023-07-31T08:12:34;19.00;93.70
72883;DHT22;61017;37.812;-122.286;2023-07-31T08:14:09;19.00;93.80
72883;DHT22;61017;37.812;-122.286;2023-07-31T08:15:46;19.00;93.80
72883;DHT22;61017;37.812;-122.286;2023-07-31T08:17:19;19.00;93.80
72883;DHT22;61017;37.812;-122.286;2023-07-31T08:18:50;19.00;93.80
72883;DHT22;61017;37.812;-122.286;2023-07-31T08:20:22;19.00;93.90
72883;DHT22;61017;37.812;-122.286;2023-07-31T08:21:56;19.00;93.80
72883;DHT22;61017;37.812;-122.286;2023-07-31T08:23:28;19.00;93.80
72883;DHT22;61017;37.812;-122.286;2023-07-31T08:25:01;19.00;93.90
72883;DHT22;61017;37.812;-122.286;2023-07-31T08:26:32;19.00;93.90
72883;DHT22;61017;37.812;-122.286;2023-07-31T08:28:21;19.00;93.80
72883;DHT22;61017;37.812;-122.286;2023-07-31T08:29:59;19.00;93.90
72883;DHT22;61017;37.812;-122.286;2023-07-31T08:31:35;19.00;93.90
72883;DHT22;61017;37.812;-122.286;2023-07-31T08:33:06;19.00;93.70
72883;DHT22;61017;37.812;-122.286;2023-07-31T08:34:38;19.00;93.70
72883;DHT22;61017;37.812;-122.286;2023-07-31T08:36:09;19.00;93.70
72883;DHT22;61017;37.812;-122.286;2023-07-31T08:37:48;19.00;93.60
72883;DHT22;61017;37.812;-122.286;2023-07-31T08:39:26;19.00;93.80
72883;DHT22;61017;37.812;-122.286;2023-07-31T08:41:03;19.00;93.80
72883;DHT22;61017;37.812;-122.286;2023-07-31T08:42:49;19.00;93.70
72883;DHT22;61017;37.812;-122.286;2023-07-31T08:44:29;19.00;93.70
72883;DHT22;61017;37.812;-122.286;2023-07-31T08:46:06;18.90;93.60
72883;DHT22;61017;37.812;-122.286;2023-07-31T08:47:38;19.00;93.70
72883;DHT22;61017;37.812;-122.286;2023-07-31T08:49:10;19.00;93.60
72883;DHT22;61017;37.812;-122.286;2023-07-31T08:50:51;19.00;93.60
72883;DHT22;61017;37.812;-122.286;2023-07-31T08:52:25;19.00;93.60
72883;DHT22;61017;37.812;-122.286;2023-07-31T08:53:57;19.00;94.00
72883;DHT22;61017;37.812;-122.286;2023-07-31T08:55:28;19.00;93.50
72883;DHT22;61017;37.812;-122.286;2023-07-31T08:57:00;19.00;93.50
72883;DHT22;61017;37.812;-122.286;2023-07-31T08:58:51;19.00;93.50
72883;DHT22;61017;37.812;-122.286;2023-07-31T09:04:38;19.00;93.60
72883;DHT22;61017;37.812;-122.286;2023-07-31T09:06:13;19.00;93.60
72883;DHT22;61017;37.812;-122.286;2023-07-31T09:07:47;19.00;93.70
72883;DHT22;61017;37.812;-122.286;2023-07-31T09:09:21;19.00;93.60
72883;DHT22;61017;37.812;-122.286;2023-07-31T09:10:59;19.00;93.50
72883;DHT22;61017;37.812;-122.286;2023-07-31T09:12:31;19.00;93.60
72883;DHT22;61017;37.812;-122.286;2023-07-31T09:14:11;19.00;93.60
72883;DHT22;61017;37.812;-122.286;2023-07-31T09:15:45;18.90;93.50
72883;DHT22;61017;37.812;-122.286;2023-07-31T09:17:30;19.00;93.50
72883;DHT22;61017;37.812;-122.286;2023-07-31T09:19:02;19.00;93.50
72883;DHT22;61017;37.812;-122.286;2023-07-31T09:20:34;19.00;93.50
72883;DHT22;61017;37.812;-122.286;2023-07-31T09:22:06;19.00;93.50
72883;DHT22;61017;37.812;-122.286;2023-07-31T09:26:54;19.00;93.50
72883;DHT22;61017;37.812;-122.286;2023-07-31T09:28:34;19.00;93.50
72883;DHT22;61017;37.812;-122.286;2023-07-31T09:30:06;19.00;93.60
72883;DHT22;61017;37.812;-122.286;2023-07-31T09:31:47;19.00;93.60
72883;DHT22;61017;37.812;-122.286;2023-07-31T09:33:22;19.00;93.60
72883;DHT22;61017;37.812;-122.286;2023-07-31T09:34:54;19.00;93.70
72883;DHT22;61017;37.812;-122.286;2023-07-31T09:36:25;19.00;93.60
72883;DHT22;61017;37.812;-122.286;2023-07-31T09:38:15;19.00;93.60
72883;DHT22;61017;37.812;-122.286;2023-07-31T09:39:48;19.00;93.60
72883;DHT22;61017;37.812;-122.286;2023-07-31T09:41:19;19.00;93.50
72883;DHT22;61017;37.812;-122.286;2023-07-31T09:42:51;19.00;93.60
72883;DHT22;61017;37.812;-122.286;2023-07-31T09:44:38;19.00;93.60
72883;DHT22;61017;37.812;-122.286;2023-07-31T09:46:14;19.00;93.60
72883;DHT22;61017;37.812;-122.286;2023-07-31T09:47:48;19.00;93.50